Terminal Aerodrome Forecast
Issued by NWS

Home | Current Version | Previous Version | Graphics & Text | Print | Product List | Glossary On
Versions: 1 2 3 4 5 6 7 8 9 10 11 12 13 14 15 16 17 18 19 20 21 22 23 24 25 26 27 28
236
FTUS43 KLOT 160823 AAA
TAFORD
TAF AMD
KORD 160823Z 1608/1712 11004KT 6SM BR SCT080 OVC120
      TEMPO 1608/1610 -FZRAPL BKN060
     FM161000 11004KT 6SM BR VCSH SCT015 OVC035
      TEMPO 1610/1612 5SM -FZRAPL OVC015
     FM161200 11005KT 3SM -FZRA BR OVC008
     FM161600 11007KT 3SM -SHRA BR OVC005
     FM161900 09009KT 2SM -SHRA BR OVC004
     FM162200 09012KT 1 1/2SM -RA BR OVC003
     FM170100 10012KT 1SM RA BR OVC003 PROB30 1701/1704 1/2SM TSRA
      FG OVC002CB
     FM170600 VRB03KT 1/2SM -SHRA FG OVC002=

USA.gov is the U.S. government's official web portal to all federal, state and local government web resources and services.